KHIO/HIO METAR and TAF weather

Enter ICAO airport designator
Station Type Date Time Source
KHIO METAR 2020/07/11 02:53 UTC NOAA

KHIO 110253Z 02008KT 10SM CLR 24/13 A3008 RMK AO2 SLP185 T02390133 55009


Station Type Date Time Source
KHIO Decoded METAR 2020/07/11 02:53 UTC NOAA

PORTLAND-HILLSBORO AIRPORT, OR, United States (KHIO) 45-33N 122-57W 68M
Jul 10, 2020 - 10:53 PM EDT / 2020.07.11 0253 UTC
Wind: from the NNE (020 degrees) at 9 MPH (8 KT):0
Visibility: 10 mile(s):0
Sky conditions: clear
Temperature: 75.0 F (23.9 C)
Dew Point: 55.9 F (13.3 C)
Relative Humidity: 51%
Pressure (altimeter): 30.08 in. Hg (1018 hPa)
Pressure tendency: 0.03 inches (0.9 hPa) lower than three hours ago
ob: KHIO 110253Z 02008KT 10SM CLR 24/13 A3008 RMK AO2 SLP185 T02390133 55009
cycle: 3

Station Type Date Time Source
KHIO TAF 2020/07/10 20:36 UTC NOAA

TAF
AMD KHIO 101933Z 1020/1118 19003KT P6SM SCT030
FM110000 36007KT P6SM FEW100
FM110600 VRB05KT P6SM SKC

Example: see airport list